Airport Name : Campia Turzii

Other Name : Campia Turzii

ICAO : LRCT

IATA :

FAA :

Latitude : 46.502281

Longitude : 23.885914

Country : Romania

Local Date and Time : 7/19/2018 12:43:00 AM

 

TAF (Terminal Aerodrome Forecast)

TAF LRCT 181700Z 1818/1918 21006KT 6000 RA SHRA BKN030CB OVC050 TEMPO 1903/1907 VRB02KT 3000 BR BKN010 OVC070

 

METAR (METeorological Aerodrome Report)

LRCT 182000Z 15010KT 9999 BKN045 19/18 Q1006 BLU BLU

LRCT 181900Z 16008KT 9999 VCSH BKN050CB 19/18 Q1006 BLU BLU

LRCT 181800Z 16004KT 9999 VCSH BKN030CB 20/18 Q1006 BLU BLU